sensor_id;sensor_type;location;lat;lon;timestamp;temperature;humidity
41630;DHT22;27322;49.488;8.480;2023-04-24T00:02:13;13.60;99.90
41630;DHT22;27322;49.488;8.480;2023-04-24T00:04:39;13.60;99.90
41630;DHT22;27322;49.488;8.480;2023-04-24T00:07:06;13.70;99.90
41630;DHT22;27322;49.488;8.480;2023-04-24T00:09:32;13.60;99.90
41630;DHT22;27322;49.488;8.480;2023-04-24T00:11:58;13.60;99.90
41630;DHT22;27322;49.488;8.480;2023-04-24T00:14:24;13.60;99.90
41630;DHT22;27322;49.488;8.480;2023-04-24T00:16:49;13.60;99.90
41630;DHT22;27322;49.488;8.480;2023-04-24T00:19:15;13.60;99.90
41630;DHT22;27322;49.488;8.480;2023-04-24T00:21:41;13.60;99.90
41630;DHT22;27322;49.488;8.480;2023-04-24T00:24:07;13.60;99.90
41630;DHT22;27322;49.488;8.480;2023-04-24T00:26:34;13.60;99.90
41630;DHT22;27322;49.488;8.480;2023-04-24T00:29:00;13.60;99.90
41630;DHT22;27322;49.488;8.480;2023-04-24T00:31:25;13.60;99.90
41630;DHT22;27322;49.488;8.480;2023-04-24T00:33:51;13.60;99.90
41630;DHT22;27322;49.488;8.480;2023-04-24T00:36:17;13.60;99.90
41630;DHT22;27322;49.488;8.480;2023-04-24T00:38:44;13.60;99.90
41630;DHT22;27322;49.488;8.480;2023-04-24T00:41:10;13.60;99.90
41630;DHT22;27322;49.488;8.480;2023-04-24T00:43:36;13.60;99.90
41630;DHT22;27322;49.488;8.480;2023-04-24T00:46:02;13.60;99.90
41630;DHT22;27322;49.488;8.480;2023-04-24T00:48:28;13.60;99.90
41630;DHT22;27322;49.488;8.480;2023-04-24T00:50:53;13.60;99.90
41630;DHT22;27322;49.488;8.480;2023-04-24T00:53:19;13.60;99.90
41630;DHT22;27322;49.488;8.480;2023-04-24T00:55:45;13.60;99.90
41630;DHT22;27322;49.488;8.480;2023-04-24T00:58:12;13.60;99.90
41630;DHT22;27322;49.488;8.480;2023-04-24T01:00:38;13.60;99.90
41630;DHT22;27322;49.488;8.480;2023-04-24T01:03:04;13.60;99.90
41630;DHT22;27322;49.488;8.480;2023-04-24T01:05:31;13.60;99.90
41630;DHT22;27322;49.488;8.480;2023-04-24T01:07:58;13.60;99.90
41630;DHT22;27322;49.488;8.480;2023-04-24T01:10:25;13.60;99.90
41630;DHT22;27322;49.488;8.480;2023-04-24T01:12:53;13.60;99.90
41630;DHT22;27322;49.488;8.480;2023-04-24T01:15:18;13.50;99.90
41630;DHT22;27322;49.488;8.480;2023-04-24T01:17:44;13.50;99.90
41630;DHT22;27322;49.488;8.480;2023-04-24T01:20:10;13.60;99.90
41630;DHT22;27322;49.488;8.480;2023-04-24T01:22:36;13.60;99.90
41630;DHT22;27322;49.488;8.480;2023-04-24T01:25:03;13.50;99.90
41630;DHT22;27322;49.488;8.480;2023-04-24T01:27:29;13.50;99.90
41630;DHT22;27322;49.488;8.480;2023-04-24T01:29:55;13.50;99.90
41630;DHT22;27322;49.488;8.480;2023-04-24T01:32:20;13.50;99.90
41630;DHT22;27322;49.488;8.480;2023-04-24T01:34:46;13.50;99.90
41630;DHT22;27322;49.488;8.480;2023-04-24T01:37:12;13.50;99.90
41630;DHT22;27322;49.488;8.480;2023-04-24T01:39:38;13.50;99.90
41630;DHT22;27322;49.488;8.480;2023-04-24T01:42:04;13.50;99.90
41630;DHT22;27322;49.488;8.480;2023-04-24T01:44:31;13.50;99.90
41630;DHT22;27322;49.488;8.480;2023-04-24T01:46:56;13.50;99.90
41630;DHT22;27322;49.488;8.480;2023-04-24T01:49:22;13.50;99.90
41630;DHT22;27322;49.488;8.480;2023-04-24T01:51:48;13.50;99.90
41630;DHT22;27322;49.488;8.480;2023-04-24T01:54:13;13.50;99.90
41630;DHT22;27322;49.488;8.480;2023-04-24T01:56:43;13.50;99.90
41630;DHT22;27322;49.488;8.480;2023-04-24T01:59:12;13.40;99.90
41630;DHT22;27322;49.488;8.480;2023-04-24T02:01:39;13.40;99.90
41630;DHT22;27322;49.488;8.480;2023-04-24T02:04:05;13.50;99.90
41630;DHT22;27322;49.488;8.480;2023-04-24T02:06:31;13.40;99.90
41630;DHT22;27322;49.488;8.480;2023-04-24T02:08:58;13.40;99.90
41630;DHT22;27322;49.488;8.480;2023-04-24T02:11:24;13.40;99.90
41630;DHT22;27322;49.488;8.480;2023-04-24T02:13:50;13.40;99.90
41630;DHT22;27322;49.488;8.480;2023-04-24T02:16:16;13.40;99.90
41630;DHT22;27322;49.488;8.480;2023-04-24T02:18:42;13.40;99.90
41630;DHT22;27322;49.488;8.480;2023-04-24T02:21:08;13.40;99.90
41630;DHT22;27322;49.488;8.480;2023-04-24T02:23:33;13.40;99.90
41630;DHT22;27322;49.488;8.480;2023-04-24T02:25:59;13.40;99.90
41630;DHT22;27322;49.488;8.480;2023-04-24T02:28:24;13.40;99.90
41630;DHT22;27322;49.488;8.480;2023-04-24T02:30:50;13.40;99.90
41630;DHT22;27322;49.488;8.480;2023-04-24T02:33:16;13.40;99.90
41630;DHT22;27322;49.488;8.480;2023-04-24T02:35:42;13.40;99.90
41630;DHT22;27322;49.488;8.480;2023-04-24T02:38:07;13.40;99.90
41630;DHT22;27322;49.488;8.480;2023-04-24T02:40:33;13.40;99.90
41630;DHT22;27322;49.488;8.480;2023-04-24T02:42:59;13.40;99.90
41630;DHT22;27322;49.488;8.480;2023-04-24T02:45:24;13.40;99.90
41630;DHT22;27322;49.488;8.480;2023-04-24T02:47:50;13.40;99.90
41630;DHT22;27322;49.488;8.480;2023-04-24T02:50:15;13.40;99.90
41630;DHT22;27322;49.488;8.480;2023-04-24T02:52:41;13.40;99.90
41630;DHT22;27322;49.488;8.480;2023-04-24T02:55:07;13.30;99.90
41630;DHT22;27322;49.488;8.480;2023-04-24T02:57:33;13.20;99.90
41630;DHT22;27322;49.488;8.480;2023-04-24T02:59:59;13.10;99.90
41630;DHT22;27322;49.488;8.480;2023-04-24T03:02:25;13.10;99.90
41630;DHT22;27322;49.488;8.480;2023-04-24T03:04:50;13.00;99.90
41630;DHT22;27322;49.488;8.480;2023-04-24T03:07:16;13.00;99.90
41630;DHT22;27322;49.488;8.480;2023-04-24T03:09:42;12.90;99.90
41630;DHT22;27322;49.488;8.480;2023-04-24T03:12:08;12.90;99.90
41630;DHT22;27322;49.488;8.480;2023-04-24T03:14:33;12.80;99.90
41630;DHT22;27322;49.488;8.480;2023-04-24T03:16:59;12.70;99.90
41630;DHT22;27322;49.488;8.480;2023-04-24T03:19:25;12.70;99.90
41630;DHT22;27322;49.488;8.480;2023-04-24T03:21:50;12.70;99.90
41630;DHT22;27322;49.488;8.480;2023-04-24T03:24:16;12.70;99.90
41630;DHT22;27322;49.488;8.480;2023-04-24T03:26:41;12.70;99.90
41630;DHT22;27322;49.488;8.480;2023-04-24T03:29:07;12.60;99.90
41630;DHT22;27322;49.488;8.480;2023-04-24T03:31:33;12.60;99.90
41630;DHT22;27322;49.488;8.480;2023-04-24T03:33:58;12.60;99.90
41630;DHT22;27322;49.488;8.480;2023-04-24T03:36:24;12.50;99.90
41630;DHT22;27322;49.488;8.480;2023-04-24T03:38:49;12.50;99.90
41630;DHT22;27322;49.488;8.480;2023-04-24T03:41:15;12.50;99.90
41630;DHT22;27322;49.488;8.480;2023-04-24T03:43:40;12.40;99.90
41630;DHT22;27322;49.488;8.480;2023-04-24T03:46:06;12.40;99.90
41630;DHT22;27322;49.488;8.480;2023-04-24T03:48:34;12.40;99.90
41630;DHT22;27322;49.488;8.480;2023-04-24T03:51:00;12.30;99.90
41630;DHT22;27322;49.488;8.480;2023-04-24T03:53:25;12.30;99.90
41630;DHT22;27322;49.488;8.480;2023-04-24T03:55:52;12.20;99.90
41630;DHT22;27322;49.488;8.480;2023-04-24T03:58:18;12.30;99.90
41630;DHT22;27322;49.488;8.480;2023-04-24T04:00:44;12.20;99.90
41630;DHT22;27322;49.488;8.480;2023-04-24T04:03:11;12.20;99.90
41630;DHT22;27322;49.488;8.480;2023-04-24T04:05:38;12.20;99.90
41630;DHT22;27322;49.488;8.480;2023-04-24T04:08:04;12.20;99.90
41630;DHT22;27322;49.488;8.480;2023-04-24T04:10:29;12.10;99.90
41630;DHT22;27322;49.488;8.480;2023-04-24T04:12:55;12.10;99.90
41630;DHT22;27322;49.488;8.480;2023-04-24T04:15:20;12.10;99.90
41630;DHT22;27322;49.488;8.480;2023-04-24T04:17:46;12.10;99.90
41630;DHT22;27322;49.488;8.480;2023-04-24T04:20:12;12.00;99.90
41630;DHT22;27322;49.488;8.480;2023-04-24T04:22:38;12.00;99.90
41630;DHT22;27322;49.488;8.480;2023-04-24T04:25:05;12.00;99.90
41630;DHT22;27322;49.488;8.480;2023-04-24T04:27:30;11.90;99.90
41630;DHT22;27322;49.488;8.480;2023-04-24T04:30:00;11.90;99.90
41630;DHT22;27322;49.488;8.480;2023-04-24T04:32:36;11.90;99.90
41630;DHT22;27322;49.488;8.480;2023-04-24T04:35:03;11.90;99.90
41630;DHT22;27322;49.488;8.480;2023-04-24T04:37:29;11.90;99.90
41630;DHT22;27322;49.488;8.480;2023-04-24T04:39:55;11.80;99.90
41630;DHT22;27322;49.488;8.480;2023-04-24T04:42:21;11.80;99.90
41630;DHT22;27322;49.488;8.480;2023-04-24T04:44:47;11.80;99.90
41630;DHT22;27322;49.488;8.480;2023-04-24T04:47:12;11.80;99.90
41630;DHT22;27322;49.488;8.480;2023-04-24T04:49:38;11.80;99.90
41630;DHT22;27322;49.488;8.480;2023-04-24T04:52:04;11.80;99.90
41630;DHT22;27322;49.488;8.480;2023-04-24T04:54:30;11.80;99.90
41630;DHT22;27322;49.488;8.480;2023-04-24T04:56:56;11.80;99.90
41630;DHT22;27322;49.488;8.480;2023-04-24T04:59:22;11.80;99.90
41630;DHT22;27322;49.488;8.480;2023-04-24T05:01:48;11.80;99.90
41630;DHT22;27322;49.488;8.480;2023-04-24T05:04:14;11.70;99.90
41630;DHT22;27322;49.488;8.480;2023-04-24T05:06:39;11.80;99.90
41630;DHT22;27322;49.488;8.480;2023-04-24T05:09:05;11.80;99.90
41630;DHT22;27322;49.488;8.480;2023-04-24T05:11:32;11.80;99.90
41630;DHT22;27322;49.488;8.480;2023-04-24T05:13:58;11.80;99.90
41630;DHT22;27322;49.488;8.480;2023-04-24T05:16:23;11.70;99.90
41630;DHT22;27322;49.488;8.480;2023-04-24T05:18:49;11.80;99.90
41630;DHT22;27322;49.488;8.480;2023-04-24T05:21:15;11.80;99.90
41630;DHT22;27322;49.488;8.480;2023-04-24T05:23:40;11.80;99.90
41630;DHT22;27322;49.488;8.480;2023-04-24T05:26:06;11.80;99.90
41630;DHT22;27322;49.488;8.480;2023-04-24T05:28:31;11.80;99.90
41630;DHT22;27322;49.488;8.480;2023-04-24T05:30:57;11.80;99.90
41630;DHT22;27322;49.488;8.480;2023-04-24T05:33:24;11.90;99.90
41630;DHT22;27322;49.488;8.480;2023-04-24T05:35:50;11.90;99.90
41630;DHT22;27322;49.488;8.480;2023-04-24T05:38:15;11.90;99.90
41630;DHT22;27322;49.488;8.480;2023-04-24T05:40:45;11.90;99.90
41630;DHT22;27322;49.488;8.480;2023-04-24T05:43:12;11.90;99.90
41630;DHT22;27322;49.488;8.480;2023-04-24T05:45:38;11.90;99.90
41630;DHT22;27322;49.488;8.480;2023-04-24T05:48:03;12.00;99.90
41630;DHT22;27322;49.488;8.480;2023-04-24T05:50:30;12.00;99.90
41630;DHT22;27322;49.488;8.480;2023-04-24T05:52:55;12.00;99.90
41630;DHT22;27322;49.488;8.480;2023-04-24T05:55:26;12.00;99.90
41630;DHT22;27322;49.488;8.480;2023-04-24T05:57:51;12.10;99.90
41630;DHT22;27322;49.488;8.480;2023-04-24T06:00:17;12.10;99.90
41630;DHT22;27322;49.488;8.480;2023-04-24T06:02:44;12.10;99.90
41630;DHT22;27322;49.488;8.480;2023-04-24T06:05:10;12.20;99.90
41630;DHT22;27322;49.488;8.480;2023-04-24T06:07:36;12.20;99.90
41630;DHT22;27322;49.488;8.480;2023-04-24T06:10:02;12.20;99.90
41630;DHT22;27322;49.488;8.480;2023-04-24T06:12:28;12.20;99.90
41630;DHT22;27322;49.488;8.480;2023-04-24T06:14:53;12.20;99.90
41630;DHT22;27322;49.488;8.480;2023-04-24T06:17:21;12.20;99.90
41630;DHT22;27322;49.488;8.480;2023-04-24T06:19:46;12.30;99.90
41630;DHT22;27322;49.488;8.480;2023-04-24T06:22:12;12.30;99.90
41630;DHT22;27322;49.488;8.480;2023-04-24T06:24:39;12.30;99.90
41630;DHT22;27322;49.488;8.480;2023-04-24T06:27:05;12.40;99.90
41630;DHT22;27322;49.488;8.480;2023-04-24T06:29:31;12.40;99.90
41630;DHT22;27322;49.488;8.480;2023-04-24T06:31:56;12.40;99.90
41630;DHT22;27322;49.488;8.480;2023-04-24T06:34:22;12.40;99.90
41630;DHT22;27322;49.488;8.480;2023-04-24T06:36:48;12.40;99.90
41630;DHT22;27322;49.488;8.480;2023-04-24T06:39:13;12.40;99.90
41630;DHT22;27322;49.488;8.480;2023-04-24T06:41:39;12.40;99.90
41630;DHT22;27322;49.488;8.480;2023-04-24T06:44:05;12.40;99.90
41630;DHT22;27322;49.488;8.480;2023-04-24T06:46:31;12.30;99.90
41630;DHT22;27322;49.488;8.480;2023-04-24T06:48:56;12.30;99.90
41630;DHT22;27322;49.488;8.480;2023-04-24T06:51:26;12.20;99.90
41630;DHT22;27322;49.488;8.480;2023-04-24T06:53:53;12.20;99.90
41630;DHT22;27322;49.488;8.480;2023-04-24T06:56:19;12.10;99.90
41630;DHT22;27322;49.488;8.480;2023-04-24T06:58:45;12.10;99.90
41630;DHT22;27322;49.488;8.480;2023-04-24T07:01:11;12.10;99.90
41630;DHT22;27322;49.488;8.480;2023-04-24T07:03:37;12.00;99.90
41630;DHT22;27322;49.488;8.480;2023-04-24T07:06:03;12.00;99.90
41630;DHT22;27322;49.488;8.480;2023-04-24T07:08:29;12.00;99.90
41630;DHT22;27322;49.488;8.480;2023-04-24T07:10:56;12.00;99.90
41630;DHT22;27322;49.488;8.480;2023-04-24T07:13:23;12.00;99.90
41630;DHT22;27322;49.488;8.480;2023-04-24T07:15:49;12.00;99.90
41630;DHT22;27322;49.488;8.480;2023-04-24T07:18:20;12.00;99.90
41630;DHT22;27322;49.488;8.480;2023-04-24T07:20:45;12.00;99.90
41630;DHT22;27322;49.488;8.480;2023-04-24T07:23:11;12.00;99.90
41630;DHT22;27322;49.488;8.480;2023-04-24T07:25:36;12.10;99.90
41630;DHT22;27322;49.488;8.480;2023-04-24T07:28:04;12.10;99.90
41630;DHT22;27322;49.488;8.480;2023-04-24T07:30:30;12.10;99.90
41630;DHT22;27322;49.488;8.480;2023-04-24T07:32:56;12.20;99.90
41630;DHT22;27322;49.488;8.480;2023-04-24T07:35:21;12.20;99.90
41630;DHT22;27322;49.488;8.480;2023-04-24T07:37:47;12.20;99.90
41630;DHT22;27322;49.488;8.480;2023-04-24T07:40:13;12.20;99.90
41630;DHT22;27322;49.488;8.480;2023-04-24T07:42:39;12.20;99.90
41630;DHT22;27322;49.488;8.480;2023-04-24T07:45:05;12.20;99.90
41630;DHT22;27322;49.488;8.480;2023-04-24T07:47:32;12.30;99.90
41630;DHT22;27322;49.488;8.480;2023-04-24T07:49:58;12.30;99.90
41630;DHT22;27322;49.488;8.480;2023-04-24T07:52:24;12.40;99.90
41630;DHT22;27322;49.488;8.480;2023-04-24T07:54:50;12.50;99.90
41630;DHT22;27322;49.488;8.480;2023-04-24T07:57:16;12.60;99.90
41630;DHT22;27322;49.488;8.480;2023-04-24T07:59:42;12.70;99.90
41630;DHT22;27322;49.488;8.480;2023-04-24T08:02:08;12.80;99.90
41630;DHT22;27322;49.488;8.480;2023-04-24T08:04:35;12.80;99.90
41630;DHT22;27322;49.488;8.480;2023-04-24T08:07:00;12.80;99.90
41630;DHT22;27322;49.488;8.480;2023-04-24T08:09:26;12.80;99.90
41630;DHT22;27322;49.488;8.480;2023-04-24T08:11:51;12.90;99.90
41630;DHT22;27322;49.488;8.480;2023-04-24T08:14:18;12.90;99.90
41630;DHT22;27322;49.488;8.480;2023-04-24T08:16:44;12.90;99.90
41630;DHT22;27322;49.488;8.480;2023-04-24T08:19:09;13.00;99.90
41630;DHT22;27322;49.488;8.480;2023-04-24T08:21:35;13.00;99.90
41630;DHT22;27322;49.488;8.480;2023-04-24T08:24:01;13.10;99.90
41630;DHT22;27322;49.488;8.480;2023-04-24T08:26:30;13.30;99.90
41630;DHT22;27322;49.488;8.480;2023-04-24T08:28:56;13.30;99.90
41630;DHT22;27322;49.488;8.480;2023-04-24T08:31:21;13.30;99.90
41630;DHT22;27322;49.488;8.480;2023-04-24T08:33:48;13.30;99.90
41630;DHT22;27322;49.488;8.480;2023-04-24T08:36:13;13.30;99.90
41630;DHT22;27322;49.488;8.480;2023-04-24T08:38:39;13.30;99.90
41630;DHT22;27322;49.488;8.480;2023-04-24T08:41:05;13.30;99.90
41630;DHT22;27322;49.488;8.480;2023-04-24T08:43:33;13.40;99.90
41630;DHT22;27322;49.488;8.480;2023-04-24T08:45:59;13.40;99.90
41630;DHT22;27322;49.488;8.480;2023-04-24T08:48:25;13.40;99.90
41630;DHT22;27322;49.488;8.480;2023-04-24T08:50:51;13.40;99.90
41630;DHT22;27322;49.488;8.480;2023-04-24T08:53:18;13.40;99.90
41630;DHT22;27322;49.488;8.480;2023-04-24T08:55:46;13.40;99.90
41630;DHT22;27322;49.488;8.480;2023-04-24T08:58:13;13.40;99.90
41630;DHT22;27322;49.488;8.480;2023-04-24T09:00:39;13.40;99.90
41630;DHT22;27322;49.488;8.480;2023-04-24T09:03:06;13.40;99.90
41630;DHT22;27322;49.488;8.480;2023-04-24T09:05:32;13.30;99.90
41630;DHT22;27322;49.488;8.480;2023-04-24T09:07:59;13.20;99.90
41630;DHT22;27322;49.488;8.480;2023-04-24T09:10:27;13.20;99.90
41630;DHT22;27322;49.488;8.480;2023-04-24T09:12:56;13.20;99.90
41630;DHT22;27322;49.488;8.480;2023-04-24T09:15:24;13.10;99.90
41630;DHT22;27322;49.488;8.480;2023-04-24T09:17:50;13.10;99.90
41630;DHT22;27322;49.488;8.480;2023-04-24T09:20:15;13.10;99.90
41630;DHT22;27322;49.488;8.480;2023-04-24T09:22:42;13.10;99.90
41630;DHT22;27322;49.488;8.480;2023-04-24T09:25:09;13.10;99.90
41630;DHT22;27322;49.488;8.480;2023-04-24T09:27:41;13.10;99.90
41630;DHT22;27322;49.488;8.480;2023-04-24T09:30:08;13.00;99.90
41630;DHT22;27322;49.488;8.480;2023-04-24T09:32:34;13.00;99.90
41630;DHT22;27322;49.488;8.480;2023-04-24T09:37:40;13.10;99.90
41630;DHT22;27322;49.488;8.480;2023-04-24T09:40:17;13.10;99.90
41630;DHT22;27322;49.488;8.480;2023-04-24T09:42:54;13.20;99.90
41630;DHT22;27322;49.488;8.480;2023-04-24T09:45:22;13.20;99.90
41630;DHT22;27322;49.488;8.480;2023-04-24T09:47:51;13.20;99.90
41630;DHT22;27322;49.488;8.480;2023-04-24T09:50:18;13.30;99.90
41630;DHT22;27322;49.488;8.480;2023-04-24T09:53:04;13.20;99.90
41630;DHT22;27322;49.488;8.480;2023-04-24T09:55:30;13.20;99.90
41630;DHT22;27322;49.488;8.480;2023-04-24T09:58:00;13.20;99.90
41630;DHT22;27322;49.488;8.480;2023-04-24T10:00:28;13.20;99.90
41630;DHT22;27322;49.488;8.480;2023-04-24T10:03:02;13.20;99.90
41630;DHT22;27322;49.488;8.480;2023-04-24T10:05:30;13.30;99.90
41630;DHT22;27322;49.488;8.480;2023-04-24T10:08:01;13.30;99.90
41630;DHT22;27322;49.488;8.480;2023-04-24T10:10:28;13.40;99.90
41630;DHT22;27322;49.488;8.480;2023-04-24T10:12:54;13.40;99.90
41630;DHT22;27322;49.488;8.480;2023-04-24T10:15:20;13.40;99.90
41630;DHT22;27322;49.488;8.480;2023-04-24T10:17:50;13.50;99.90
41630;DHT22;27322;49.488;8.480;2023-04-24T10:20:23;13.50;99.90
41630;DHT22;27322;49.488;8.480;2023-04-24T10:22:51;13.50;99.90
41630;DHT22;27322;49.488;8.480;2023-04-24T10:25:23;13.40;99.90
41630;DHT22;27322;49.488;8.480;2023-04-24T10:27:50;13.40;99.90
41630;DHT22;27322;49.488;8.480;2023-04-24T10:30:17;13.50;99.90
41630;DHT22;27322;49.488;8.480;2023-04-24T10:32:43;13.50;99.90
41630;DHT22;27322;49.488;8.480;2023-04-24T10:35:11;13.60;99.90
41630;DHT22;27322;49.488;8.480;2023-04-24T10:37:44;13.70;99.90
41630;DHT22;27322;49.488;8.480;2023-04-24T10:40:11;13.80;99.90
41630;DHT22;27322;49.488;8.480;2023-04-24T10:42:40;14.00;99.90
41630;DHT22;27322;49.488;8.480;2023-04-24T10:45:18;14.10;99.90
41630;DHT22;27322;49.488;8.480;2023-04-24T10:47:56;14.20;99.90
41630;DHT22;27322;49.488;8.480;2023-04-24T10:50:22;14.20;99.90
41630;DHT22;27322;49.488;8.480;2023-04-24T10:52:48;14.10;99.90
41630;DHT22;27322;49.488;8.480;2023-04-24T10:55:17;14.10;99.90
41630;DHT22;27322;49.488;8.480;2023-04-24T10:58:03;14.00;99.90
41630;DHT22;27322;49.488;8.480;2023-04-24T11:00:29;14.00;99.90
41630;DHT22;27322;49.488;8.480;2023-04-24T11:02:55;13.90;99.90
41630;DHT22;27322;49.488;8.480;2023-04-24T11:05:22;14.00;99.90
41630;DHT22;27322;49.488;8.480;2023-04-24T11:08:14;13.90;99.90
41630;DHT22;27322;49.488;8.480;2023-04-24T11:10:45;13.90;99.90
41630;DHT22;27322;49.488;8.480;2023-04-24T11:13:17;13.80;99.90
41630;DHT22;27322;49.488;8.480;2023-04-24T11:16:19;13.80;99.90
41630;DHT22;27322;49.488;8.480;2023-04-24T11:18:51;13.80;99.90
41630;DHT22;27322;49.488;8.480;2023-04-24T11:21:20;13.80;99.90
41630;DHT22;27322;49.488;8.480;2023-04-24T11:23:46;13.80;99.90
41630;DHT22;27322;49.488;8.480;2023-04-24T11:26:12;13.80;99.90
41630;DHT22;27322;49.488;8.480;2023-04-24T11:28:45;13.80;99.90
41630;DHT22;27322;49.488;8.480;2023-04-24T11:31:34;13.90;99.90
41630;DHT22;27322;49.488;8.480;2023-04-24T11:34:08;13.90;99.90
41630;DHT22;27322;49.488;8.480;2023-04-24T11:36:34;13.90;99.90
41630;DHT22;27322;49.488;8.480;2023-04-24T11:39:00;13.90;99.90
41630;DHT22;27322;49.488;8.480;2023-04-24T11:41:26;13.90;99.90
41630;DHT22;27322;49.488;8.480;2023-04-24T11:43:53;14.00;99.90
41630;DHT22;27322;49.488;8.480;2023-04-24T11:46:21;14.00;99.90
41630;DHT22;27322;49.488;8.480;2023-04-24T11:48:47;14.00;99.90
41630;DHT22;27322;49.488;8.480;2023-04-24T11:51:13;14.00;99.90
41630;DHT22;27322;49.488;8.480;2023-04-24T11:53:39;14.00;99.90
41630;DHT22;27322;49.488;8.480;2023-04-24T11:56:05;13.90;99.90
41630;DHT22;27322;49.488;8.480;2023-04-24T11:58:40;13.90;99.90
41630;DHT22;27322;49.488;8.480;2023-04-24T12:01:06;13.90;99.90
41630;DHT22;27322;49.488;8.480;2023-04-24T12:03:31;13.80;99.90
41630;DHT22;27322;49.488;8.480;2023-04-24T12:06:10;13.80;99.90
41630;DHT22;27322;49.488;8.480;2023-04-24T12:08:37;13.70;99.90
41630;DHT22;27322;49.488;8.480;2023-04-24T12:11:05;13.70;99.90
41630;DHT22;27322;49.488;8.480;2023-04-24T12:13:33;13.70;99.90
41630;DHT22;27322;49.488;8.480;2023-04-24T12:15:59;13.80;99.90
41630;DHT22;27322;49.488;8.480;2023-04-24T12:18:25;13.80;99.90
41630;DHT22;27322;49.488;8.480;2023-04-24T12:20:51;13.90;99.90
41630;DHT22;27322;49.488;8.480;2023-04-24T12:23:33;13.90;99.90
41630;DHT22;27322;49.488;8.480;2023-04-24T12:26:00;13.90;99.90
41630;DHT22;27322;49.488;8.480;2023-04-24T12:28:38;14.00;99.90
41630;DHT22;27322;49.488;8.480;2023-04-24T12:31:04;14.00;99.90
41630;DHT22;27322;49.488;8.480;2023-04-24T12:33:33;14.00;99.90
41630;DHT22;27322;49.488;8.480;2023-04-24T12:35:59;14.00;99.90
41630;DHT22;27322;49.488;8.480;2023-04-24T12:38:26;14.00;99.90
41630;DHT22;27322;49.488;8.480;2023-04-24T12:41:09;14.00;99.90
41630;DHT22;27322;49.488;8.480;2023-04-24T12:43:35;14.00;99.90
41630;DHT22;27322;49.488;8.480;2023-04-24T12:46:01;14.00;99.90
41630;DHT22;27322;49.488;8.480;2023-04-24T12:48:27;14.00;99.90
41630;DHT22;27322;49.488;8.480;2023-04-24T12:50:53;14.00;99.90
41630;DHT22;27322;49.488;8.480;2023-04-24T12:53:19;14.00;99.90
41630;DHT22;27322;49.488;8.480;2023-04-24T12:55:45;14.00;99.90
41630;DHT22;27322;49.488;8.480;2023-04-24T12:58:12;14.00;99.90
41630;DHT22;27322;49.488;8.480;2023-04-24T13:00:38;14.00;99.90
41630;DHT22;27322;49.488;8.480;2023-04-24T13:03:04;14.10;99.90
41630;DHT22;27322;49.488;8.480;2023-04-24T13:05:30;14.00;99.90
41630;DHT22;27322;49.488;8.480;2023-04-24T13:07:56;14.10;99.90
41630;DHT22;27322;49.488;8.480;2023-04-24T13:10:22;14.10;99.90
41630;DHT22;27322;49.488;8.480;2023-04-24T13:12:48;14.10;99.90
41630;DHT22;27322;49.488;8.480;2023-04-24T13:15:13;14.10;99.90
41630;DHT22;27322;49.488;8.480;2023-04-24T13:17:39;14.10;99.90
41630;DHT22;27322;49.488;8.480;2023-04-24T13:20:05;14.10;99.90
41630;DHT22;27322;49.488;8.480;2023-04-24T13:22:31;14.10;99.90
41630;DHT22;27322;49.488;8.480;2023-04-24T13:24:57;14.10;99.90
41630;DHT22;27322;49.488;8.480;2023-04-24T13:27:22;14.10;99.90
41630;DHT22;27322;49.488;8.480;2023-04-24T13:29:48;14.10;99.90
41630;DHT22;27322;49.488;8.480;2023-04-24T13:32:14;14.20;99.90
41630;DHT22;27322;49.488;8.480;2023-04-24T13:34:39;14.20;99.90
41630;DHT22;27322;49.488;8.480;2023-04-24T13:37:05;14.20;99.90
41630;DHT22;27322;49.488;8.480;2023-04-24T13:39:31;14.20;99.90
41630;DHT22;27322;49.488;8.480;2023-04-24T13:41:57;14.20;99.90
41630;DHT22;27322;49.488;8.480;2023-04-24T13:44:24;14.20;99.90
41630;DHT22;27322;49.488;8.480;2023-04-24T13:46:51;14.20;99.90
41630;DHT22;27322;49.488;8.480;2023-04-24T13:49:19;14.20;99.90
41630;DHT22;27322;49.488;8.480;2023-04-24T13:51:45;14.20;99.90
41630;DHT22;27322;49.488;8.480;2023-04-24T13:54:11;14.20;99.90
41630;DHT22;27322;49.488;8.480;2023-04-24T13:56:37;14.20;99.90
41630;DHT22;27322;49.488;8.480;2023-04-24T13:59:03;14.20;99.90
41630;DHT22;27322;49.488;8.480;2023-04-24T14:01:29;14.10;99.90
41630;DHT22;27322;49.488;8.480;2023-04-24T14:03:55;14.10;99.90
41630;DHT22;27322;49.488;8.480;2023-04-24T14:06:21;14.10;99.90
41630;DHT22;27322;49.488;8.480;2023-04-24T14:08:48;14.10;99.90
41630;DHT22;27322;49.488;8.480;2023-04-24T14:11:16;14.10;99.90
41630;DHT22;27322;49.488;8.480;2023-04-24T14:13:42;14.10;99.90
41630;DHT22;27322;49.488;8.480;2023-04-24T14:16:11;14.10;99.90
41630;DHT22;27322;49.488;8.480;2023-04-24T14:18:37;14.10;99.90
41630;DHT22;27322;49.488;8.480;2023-04-24T14:21:03;14.10;99.90
41630;DHT22;27322;49.488;8.480;2023-04-24T14:23:29;14.10;99.90
41630;DHT22;27322;49.488;8.480;2023-04-24T14:25:56;14.10;99.90
41630;DHT22;27322;49.488;8.480;2023-04-24T14:28:22;14.10;99.90
41630;DHT22;27322;49.488;8.480;2023-04-24T14:30:47;14.00;99.90
41630;DHT22;27322;49.488;8.480;2023-04-24T14:33:13;14.10;99.90
41630;DHT22;27322;49.488;8.480;2023-04-24T14:35:40;14.10;99.90
41630;DHT22;27322;49.488;8.480;2023-04-24T14:38:07;14.10;99.90
41630;DHT22;27322;49.488;8.480;2023-04-24T14:40:32;14.10;99.90
41630;DHT22;27322;49.488;8.480;2023-04-24T14:42:58;14.10;99.90
41630;DHT22;27322;49.488;8.480;2023-04-24T14:45:27;14.10;99.90
41630;DHT22;27322;49.488;8.480;2023-04-24T14:47:53;14.10;99.90
41630;DHT22;27322;49.488;8.480;2023-04-24T14:50:19;14.10;99.90
41630;DHT22;27322;49.488;8.480;2023-04-24T14:52:45;14.10;99.90
41630;DHT22;27322;49.488;8.480;2023-04-24T14:55:11;14.20;99.90
41630;DHT22;27322;49.488;8.480;2023-04-24T14:57:37;14.20;99.90
41630;DHT22;27322;49.488;8.480;2023-04-24T15:00:04;14.20;99.90
41630;DHT22;27322;49.488;8.480;2023-04-24T15:02:32;14.20;99.90
41630;DHT22;27322;49.488;8.480;2023-04-24T15:04:58;14.10;99.90
41630;DHT22;27322;49.488;8.480;2023-04-24T15:07:24;14.10;99.90
41630;DHT22;27322;49.488;8.480;2023-04-24T15:09:50;14.00;99.90
41630;DHT22;27322;49.488;8.480;2023-04-24T15:12:15;14.00;99.90
41630;DHT22;27322;49.488;8.480;2023-04-24T15:14:41;14.00;99.90
41630;DHT22;27322;49.488;8.480;2023-04-24T15:17:07;13.90;99.90
41630;DHT22;27322;49.488;8.480;2023-04-24T15:19:32;13.90;99.90
41630;DHT22;27322;49.488;8.480;2023-04-24T15:21:58;13.90;99.90
41630;DHT22;27322;49.488;8.480;2023-04-24T15:24:23;13.80;99.90
41630;DHT22;27322;49.488;8.480;2023-04-24T15:26:49;13.80;99.90
41630;DHT22;27322;49.488;8.480;2023-04-24T15:29:15;13.80;99.90
41630;DHT22;27322;49.488;8.480;2023-04-24T15:31:40;13.80;99.90